Evansville, Indiana
Current Conditions -  °F | °C
As of 9:54 AM on Monday 22 Dec 2014 (Local Time) from KEVV Reporting Station
Overcast Overcast  
Wind Chill: 45°   Ceiling: 2700
Heat Index: 48°   Visibility: 9mi
Dew Point: 42°   Wind: 6mph
Humidity: 80%   Direction: 140°SE
Pressure: 29.88"   Gusts: NA
Location:  37.98°N, 87.56°W
Report Text: KEVV 221554Z 14005KT 9SM FEW020 OVC027 09/06 A2988 RMK AO2 SLP119 T00890056
Loading
Personal Weather Stations






























Interactive Weather Map New forecast layout! Learn more

10-Day Weather Forecast

Advertisements
Track Severe Weather on mobile